Latest Coastal Weather Observations for Mallacoota

IDV60701

Issued at 1:51 pm EST Wednesday 22 April 2015 (issued every 10 minutes, with the page automatically refreshed every 10 minutes)

About coastal observations | Map of coastal stations | Coastal observations for VIC | Marine services | Other Formats
Station Details ID: 084084 Name: MALLACOOTA Lat: -37.60 Lon: 149.73 Height: 22.0 m
Data from the previous 72 hours. | See also: Recent months at Mallacoota
Date/Time
EST
Temp

°C
Wind Pressure Rain
since 9am
mm
Weather Cloud Vis
km
Sea
Height
m
Swell
Dir
 
Speed
knots
Gust
knots
hPa Trend Height
m
Period
s
Dir
22/01:30pm 15.6 S 11 18 1019.6 - 27.0 - - - - - - -
22/01:00pm 15.4 S 14 21 1020.1 - 24.8 - - - - - - -
22/12:30pm 15.1 S 15 20 1020.6 - 20.6 - - - - - - -
22/12:00pm 15.1 S 12 22 1021.0 - 17.8 - - - - - - -
22/11:30am 14.9 S 14 22 1021.7 - 13.8 - - - - - - -
22/11:00am 14.6 SSW 10 15 1022.2 - 10.2 - - - - - - -
22/10:30am 13.8 SSW 14 21 1022.6 - 7.2 - - - - - - -
22/10:00am 14.0 SSW 10 18 1022.9 - 5.4 - - - - - - -
22/09:30am 13.7 S 13 19 1023.3 - 3.8 - - - - - - -
22/09:00am 13.5 SSW 11 16 1023.3 - 11.0 - - - - - - -
22/08:30am 13.7 S 10 19 1023.3 - 9.6 - - - - - - -
22/08:00am 13.6 SSW 9 18 1023.5 - 8.0 - - - - - - -
22/07:30am 13.3 S 12 16 1023.7 - 7.2 - - - - - - -
22/07:00am 13.5 S 8 14 1023.6 - 6.2 - - - - - - -
22/06:30am 13.8 SSW 6 11 1023.7 - 5.0 - - - - - - -
22/06:00am 14.4 ESE 12 22 1023.4 - 4.4 - - - - - - -
22/05:30am 16.4 ESE 7 15 1022.9 - 3.8 - - - - - - -
22/05:00am 16.6 S 8 18 1022.7 - 3.8 - - - - - - -
22/04:30am 16.6 E 5 10 1022.9 - 3.8 - - - - - - -
22/04:00am 16.4 SE 7 13 1023.1 - 3.8 - - - - - - -
22/03:30am 15.9 S 6 15 1022.9 - 3.8 - - - - - - -
22/03:00am 16.2 SSE 5 10 1023.2 - 3.6 - - - - - - -
22/02:30am 16.2 W 6 12 1023.5 - 3.6 - - - - - - -
22/02:00am 16.3 SE 8 18 1024.0 - 3.6 - - - - - - -
22/01:30am 15.9 SSE 7 16 1024.4 - 3.6 - - - - - - -
22/01:00am 15.6 S 10 17 1024.7 - 3.6 - - - - - - -
22/12:30am 14.8 S 11 20 1025.0 - 3.6 - - - - - - -
22/12:00am 15.5 SSW 9 16 1025.3 - 3.4 - - - - - - -
 
Date/Time
EST
Temp

°C
Wind Pressure Rain
since 9am
mm
Weather Cloud Vis
km
Sea
Height
m
Swell
Dir
 
Speed
knots
Gust
knots
hPa Trend Height
m
Period
s
Dir
21/11:30pm 14.7 SE 8 15 1025.7 - 3.2 - - - - - - -
21/11:00pm 16.1 S 8 18 1026.0 - 1.4 - - - - - - -
21/10:30pm 16.3 SSW 7 12 1026.2 - 1.4 - - - - - - -
21/10:00pm 16.2 SSE 7 16 1026.7 - 1.4 - - - - - - -
21/09:30pm 16.1 E 6 13 1027.0 - 1.4 - - - - - - -
21/09:00pm 15.5 S 17 23 1027.2 - 1.4 - - - - - - -
21/08:30pm 15.6 S 8 14 1027.2 - 1.4 - - - - - - -
21/08:00pm 14.5 ESE 12 17 1027.5 - 1.4 - - - - - - -
21/07:30pm 14.7 SE 15 24 1027.8 - 1.4 - - - - - - -
21/07:00pm 13.8 SE 15 28 1028.0 - 1.2 - - - - - - -
21/06:51pm 14.6 SE 16 28 1028.0 - 1.2 - - - - - - -
21/06:30pm 14.1 S 13 18 1028.0 - 1.0 - - - - - - -
21/06:00pm 14.1 S 15 20 1027.9 - 0.8 - - - - - - -
21/05:30pm 15.1 S 17 25 1027.8 - 0.8 - - - - - - -
21/05:14pm 15.6 S 15 25 1027.6 - 0.8 - - - - - - -
21/05:00pm 15.9 S 9 17 1027.5 - 0.8 - - - - - - -
21/04:30pm 16.0 SE 7 13 1027.7 - 0.8 - - - - - - -
21/04:00pm 16.1 SE 7 12 1027.6 - 0.8 - - - - - - -
21/03:30pm 16.4 S 8 16 1027.7 - 0.8 - - - - - - -
21/03:00pm 16.2 S 13 18 1027.8 - 0.8 - - - - - - -
21/02:30pm 16.4 SSW 7 14 1027.9 - 0.8 - - - - - - -
21/02:00pm 15.6 S 14 21 1028.3 - 0.8 - - - - - - -
21/01:30pm 15.9 S 8 16 1028.8 - 0.8 - - - - - - -
21/01:00pm 16.0 S 6 12 1029.1 - 0.8 - - - - - - -
21/12:30pm 16.4 ESE 6 12 1029.4 - 0.8 - - - - - - -
21/12:00pm 15.5 S 10 17 1029.7 - 0.8 - - - - - - -
21/11:30am 15.1 S 9 15 1030.1 - 0.8 - - - - - - -
21/11:00am 15.7 S 13 18 1030.4 - 0.8 - - - - - - -
21/10:30am 14.9 S 12 19 1030.7 - 0.8 - - - - - - -
21/10:00am 14.5 SE 10 14 1030.9 - 0.8 - - - - - - -
21/09:30am 13.2 S 14 20 1031.2 - 0.6 - - - - - - -
21/09:00am 13.1 SW 6 9 1031.1 - 2.2 - - - - - - -
21/08:30am 13.1 SW 9 12 1031.1 - 2.2 - - - - - - -
21/08:00am 13.1 SSW 11 23 1031.4 - 2.2 - - - - - - -
21/07:30am 13.8 S 16 22 1031.0 - 2.2 - - - - - - -
21/07:00am 14.3 S 14 24 1030.8 - 2.2 - - - - - - -
21/06:30am 13.3 S 12 18 1030.7 - 2.2 - - - - - - -
21/06:06am 13.3 S 15 25 1030.8 - 2.2 - - - - - - -
21/06:00am 12.6 S 16 24 1030.9 - 2.2 - - - - - - -
21/05:30am 13.0 S 8 14 1030.7 - 1.6 - - - - - - -
21/05:00am 13.5 ESE 10 18 1030.5 - 1.4 - - - - - - -
21/04:30am 12.7 SW 5 8 1030.5 - 1.4 - - - - - - -
21/04:00am 13.4 SE 11 19 1030.6 - 1.4 - - - - - - -
21/03:30am 12.5 SE 15 23 1030.4 - 1.4 - - - - - - -
21/03:29am 12.4 SE 15 23 1030.4 - 1.4 - - - - - - -
21/03:00am 12.4 W 1 4 1030.7 - 1.2 - - - - - - -
21/02:30am 12.7 SE 13 20 1031.1 - 0.8 - - - - - - -
21/02:00am 14.0 S 12 18 1031.0 - 0.8 - - - - - - -
21/01:30am 12.9 SE 8 13 1031.7 - 0.8 - - - - - - -
21/01:00am 14.7 SE 11 15 1032.0 - 0.4 - - - - - - -
21/12:30am 14.3 SE 15 23 1031.9 - 0.4 - - - - - - -
21/12:00am 14.4 SE 12 20 1032.0 - 0.4 - - - - - - -
 
Date/Time
EST
Temp

°C
Wind Pressure Rain
since 9am
mm
Weather Cloud Vis
km
Sea
Height
m
Swell
Dir
 
Speed
knots
Gust
knots
hPa Trend Height
m
Period
s
Dir
20/11:30pm 14.6 S 10 20 1032.4 - 0.4 - - - - - - -
20/11:00pm 14.3 SSE 8 16 1032.7 - 0.4 - - - - - - -
20/10:30pm 14.1 ESE 11 16 1032.8 - 0.4 - - - - - - -
20/10:00pm 14.9 SE 13 19 1033.0 - 0.4 - - - - - - -
20/09:30pm 15.1 ESE 12 21 1033.1 - 0.4 - - - - - - -
20/09:00pm 14.7 SE 7 16 1032.9 - 0.4 - - - - - - -
20/08:30pm 14.7 SSE 6 12 1032.9 - 0.4 - - - - - - -
20/08:00pm 14.3 SE 7 15 1032.9 - 0.4 - - - - - - -
20/07:30pm 14.5 ESE 9 17 1032.7 - 0.4 - - - - - - -
20/07:00pm 14.5 SE 7 14 1032.9 - 0.4 - - - - - - -
20/06:30pm 14.6 SW 7 19 1032.9 - 0.4 - - - - - - -
20/06:00pm 14.7 S 14 23 1032.5 - 0.4 - - - - - - -
20/05:30pm 14.7 SSE 8 19 1032.4 - 0.4 - - - - - - -
20/05:00pm 14.8 S 9 17 1032.1 - 0.4 - - - - - - -
20/04:30pm 15.1 ESE 7 17 1032.0 - 0.4 - - - - - - -
20/04:00pm 15.1 S 12 21 1032.2 - 0.4 - - - - - - -
20/03:30pm 13.3 SSW 6 8 1032.4 - 0.2 - - - - - - -
20/03:00pm 14.8 S 13 20 1032.2 - 0.0 - - - - - - -
20/02:30pm 15.3 S 11 20 1032.0 - 0.0 - - - - - - -
20/02:00pm 15.6 SE 9 16 1032.4 - 0.0 - - - - - - -
20/01:30pm 14.9 S 12 17 1032.4 - 0.0 - - - - - - -
20/01:00pm 15.9 S 11 18 1032.4 - 0.0 - - - - - - -
20/12:30pm 16.6 S 10 16 1032.4 - 0.0 - - - - - - -
20/12:00pm 16.0 ESE 8 14 1033.1 - 0.0 - - - - - - -
20/11:30am 14.7 S 13 19 1033.4 - 0.0 - - - - - - -
20/11:00am 15.3 S 8 15 1033.6 - 0.0 - - - - - - -
20/10:30am 14.5 S 15 22 1033.7 - 0.0 - - - - - - -
20/10:00am 15.0 S 8 17 1033.5 - 0.0 - - - - - - -
20/09:30am 12.6 SW 6 13 1033.7 - 0.0 - - - - - - -
20/09:00am 11.8 SW 10 14 1033.6 - 34.8 - - - - - - -
20/08:47am 12.0 SSW 13 21 1033.6 - 34.4 - - - - - - -
20/08:30am 13.2 S 20 29 1033.4 - 33.8 - - - - - - -
20/08:22am 14.2 SSW 16 27 1033.3 - 33.8 - - - - - - -
20/08:00am 14.0 SSW 15 22 1033.2 - 33.8 - - - - - - -
20/07:31am 14.2 S 16 26 1032.9 - 33.8 - - - - - - -
20/07:30am 14.2 S 17 26 1032.9 - 33.8 - - - - - - -
20/07:23am 15.0 S 16 26 1032.7 - 33.8 - - - - - - -
20/07:00am 14.6 S 12 20 1032.2 - 33.8 - - - - - - -
20/06:30am 10.6 W 7 14 1032.1 - 33.8 - - - - - - -
20/06:00am 10.1 W 6 10 1032.2 - 33.8 - - - - - - -
20/05:30am 14.4 SSW 7 16 1031.6 - 33.8 - - - - - - -
20/05:00am 14.5 SSE 7 16 1031.4 - 33.8 - - - - - - -
20/04:30am 14.6 S 15 24 1031.0 - 33.8 - - - - - - -
20/04:02am 14.5 S 15 26 1030.6 - 33.8 - - - - - - -
20/04:00am 14.5 S 13 25 1030.7 - 33.8 - - - - - - -
20/03:30am 14.5 S 16 23 1030.3 - 33.8 - - - - - - -
20/03:00am 14.3 S 16 24 1030.3 - 33.8 - - - - - - -
20/02:30am 14.5 S 16 26 1030.2 - 33.6 - - - - - - -
20/02:24am 14.0 S 15 26 1030.2 - 33.6 - - - - - - -
20/02:00am 10.1 WSW 6 13 1030.4 - 33.6 - - - - - - -
20/01:30am 10.1 WSW 7 11 1030.5 - 33.6 - - - - - - -
20/01:00am 9.6 WSW 7 11 1030.6 - 33.6 - - - - - - -
20/12:30am 9.2 WNW 10 16 1030.7 - 33.6 - - - - - - -
20/12:00am 9.2 NW 10 15 1030.8 - 33.6 - - - - - - -
 
Date/Time
EST
Temp

°C
Wind Pressure Rain
since 9am
mm
Weather Cloud Vis
km
Sea
Height
m
Swell
Dir
 
Speed
knots
Gust
knots
hPa Trend Height
m
Period
s
Dir
19/11:30pm 9.2 W 5 8 1031.0 - 32.4 - - - - - - -
19/11:00pm 9.8 SW 8 12 1030.9 - 31.6 - - - - - - -
19/10:30pm 9.4 W 7 11 1030.7 - 29.6 - - - - - - -
19/10:00pm 9.3 W 8 15 1030.7 - 29.6 - - - - - - -
19/09:30pm 9.2 W 7 12 1030.1 - 29.6 - - - - - - -
19/09:00pm 9.4 W 11 19 1030.1 - 29.4 - - - - - - -
19/08:30pm 9.7 WSW 9 14 1029.7 - 29.0 - - - - - - -
19/08:00pm 9.6 WSW 9 13 1029.3 - 27.4 - - - - - - -
19/07:30pm 9.6 W 6 10 1028.6 - 26.8 - - - - - - -
19/07:00pm 9.4 WNW 8 13 1028.1 - 25.2 - - - - - - -
19/06:30pm 9.7 W 6 13 1027.9 - 22.4 - - - - - - -
19/06:00pm 9.6 WNW 8 13 1027.1 - 20.0 - - - - - - -
19/05:30pm 10.8 NW 13 18 1026.1 - 10.0 - - - - - - -
19/05:00pm 11.5 S 18 28 1026.1 - 7.8 - - - - - - -
19/04:40pm 13.5 S 15 26 1024.9 - 7.2 - - - - - - -
19/04:30pm 13.5 SSW 13 20 1024.6 - 7.2 - - - - - - -
19/04:00pm 13.1 SSW 11 18 1024.0 - 7.2 - - - - - - -
19/03:30pm 11.1 SSW 14 24 1023.8 - 6.8 - - - - - - -
19/03:00pm 12.9 SW 12 20 1023.1 - 2.8 - - - - - - -
19/02:30pm 13.7 SW 8 15 1022.5 - 2.6 - - - - - - -
19/02:00pm 14.5 WSW 7 11 1022.5 - 2.0 - - - - - - -

Other Formats:

Comma delimited format used in spreadsheet applications
http://www.bom.gov.au/fwo/IDV60701/IDV60701.94935.axf

JavaScript Object Notation format (JSON) in row-major order
http://www.bom.gov.au/fwo/IDV60701/IDV60701.94935.json